sensor_id;sensor_type;location;lat;lon;timestamp;pressure;altitude;pressure_sealevel;temperature
82780;BMP280;72511;45.120;20.720;2024-02-26T00:08:29;99591.59;;;12.02
82780;BMP280;72511;45.120;20.720;2024-02-26T00:18:30;99584.34;;;11.99
82780;BMP280;72511;45.120;20.720;2024-02-26T00:28:32;99573.50;;;11.99
82780;BMP280;72511;45.120;20.720;2024-02-26T00:38:33;99557.19;;;11.81
82780;BMP280;72511;45.120;20.720;2024-02-26T00:48:35;99566.97;;;11.78
82780;BMP280;72511;45.120;20.720;2024-02-26T00:58:36;99552.66;;;11.78
82780;BMP280;72511;45.120;20.720;2024-02-26T01:08:38;99558.63;;;11.64
82780;BMP280;72511;45.120;20.720;2024-02-26T01:18:40;99561.94;;;11.68
82780;BMP280;72511;45.120;20.720;2024-02-26T01:28:41;99561.66;;;11.66
82780;BMP280;72511;45.120;20.720;2024-02-26T01:38:42;99548.31;;;11.50
82780;BMP280;72511;45.120;20.720;2024-02-26T01:48:45;99549.69;;;11.33
82780;BMP280;72511;45.120;20.720;2024-02-26T01:58:48;99549.28;;;11.13
82780;BMP280;72511;45.120;20.720;2024-02-26T02:08:50;99552.09;;;10.88
82780;BMP280;72511;45.120;20.720;2024-02-26T02:18:51;99550.69;;;10.62
82780;BMP280;72511;45.120;20.720;2024-02-26T02:28:53;99554.63;;;10.36
82780;BMP280;72511;45.120;20.720;2024-02-26T02:38:54;99550.06;;;10.33
82780;BMP280;72511;45.120;20.720;2024-02-26T02:48:56;99545.13;;;10.19
82780;BMP280;72511;45.120;20.720;2024-02-26T02:58:57;99546.22;;;10.21
82780;BMP280;72511;45.120;20.720;2024-02-26T03:08:59;99556.00;;;10.40
82780;BMP280;72511;45.120;20.720;2024-02-26T03:19:00;99540.56;;;10.41
82780;BMP280;72511;45.120;20.720;2024-02-26T03:29:02;99548.41;;;10.60
82780;BMP280;72511;45.120;20.720;2024-02-26T03:39:04;99534.75;;;10.64
82780;BMP280;72511;45.120;20.720;2024-02-26T03:49:09;99538.75;;;10.72
82780;BMP280;72511;45.120;20.720;2024-02-26T03:59:10;99542.41;;;10.78
82780;BMP280;72511;45.120;20.720;2024-02-26T04:09:13;99525.69;;;10.70
82780;BMP280;72511;45.120;20.720;2024-02-26T04:19:14;99550.31;;;10.94
82780;BMP280;72511;45.120;20.720;2024-02-26T04:29:16;99544.44;;;11.08
82780;BMP280;72511;45.120;20.720;2024-02-26T04:39:17;99539.94;;;11.14
82780;BMP280;72511;45.120;20.720;2024-02-26T04:49:19;99543.09;;;11.12
82780;BMP280;72511;45.120;20.720;2024-02-26T04:59:20;99525.78;;;11.10
82780;BMP280;72511;45.120;20.720;2024-02-26T05:09:21;99545.06;;;11.12
82780;BMP280;72511;45.120;20.720;2024-02-26T05:19:23;99551.38;;;11.09
82780;BMP280;72511;45.120;20.720;2024-02-26T05:29:24;99564.38;;;11.01
82780;BMP280;72511;45.120;20.720;2024-02-26T05:39:26;99572.06;;;11.03
82780;BMP280;72511;45.120;20.720;2024-02-26T05:49:27;99574.41;;;11.13
82780;BMP280;72511;45.120;20.720;2024-02-26T05:59:28;99559.50;;;11.30
82780;BMP280;72511;45.120;20.720;2024-02-26T06:09:30;99570.91;;;11.86
82780;BMP280;72511;45.120;20.720;2024-02-26T06:19:32;99577.09;;;13.85
82780;BMP280;72511;45.120;20.720;2024-02-26T06:29:33;99584.84;;;13.09
82780;BMP280;72511;45.120;20.720;2024-02-26T06:39:34;99595.31;;;13.43
82780;BMP280;72511;45.120;20.720;2024-02-26T06:49:38;99598.41;;;13.09
82780;BMP280;72511;45.120;20.720;2024-02-26T06:59:39;99613.50;;;13.10
82780;BMP280;72511;45.120;20.720;2024-02-26T07:09:42;99619.94;;;13.30
82780;BMP280;72511;45.120;20.720;2024-02-26T07:19:43;99609.72;;;13.67
82780;BMP280;72511;45.120;20.720;2024-02-26T07:29:45;99634.63;;;14.16
82780;BMP280;72511;45.120;20.720;2024-02-26T07:39:46;99634.59;;;14.72
82780;BMP280;72511;45.120;20.720;2024-02-26T07:49:47;99623.91;;;15.21
82780;BMP280;72511;45.120;20.720;2024-02-26T07:59:49;99612.00;;;16.36
82780;BMP280;72511;45.120;20.720;2024-02-26T08:09:50;99615.44;;;16.57
82780;BMP280;72511;45.120;20.720;2024-02-26T08:19:52;99611.72;;;17.62
82780;BMP280;72511;45.120;20.720;2024-02-26T08:29:53;99615.03;;;19.26
82780;BMP280;72511;45.120;20.720;2024-02-26T08:39:55;99604.03;;;19.15
82780;BMP280;72511;45.120;20.720;2024-02-26T08:49:56;99595.22;;;19.88
82780;BMP280;72511;45.120;20.720;2024-02-26T08:59:57;99585.16;;;20.07
82780;BMP280;72511;45.120;20.720;2024-02-26T09:09:59;99576.13;;;20.12
82780;BMP280;72511;45.120;20.720;2024-02-26T09:20:02;99584.28;;;19.72
82780;BMP280;72511;45.120;20.720;2024-02-26T09:30:04;99579.81;;;19.63
82780;BMP280;72511;45.120;20.720;2024-02-26T09:40:06;99584.84;;;19.48
82780;BMP280;72511;45.120;20.720;2024-02-26T09:50:09;99583.47;;;19.93
82780;BMP280;72511;45.120;20.720;2024-02-26T10:00:16;99573.25;;;19.88
82780;BMP280;72511;45.120;20.720;2024-02-26T10:10:19;99565.72;;;20.00
82780;BMP280;72511;45.120;20.720;2024-02-26T10:20:21;99552.72;;;20.06
82780;BMP280;72511;45.120;20.720;2024-02-26T10:30:24;99545.88;;;20.29
82780;BMP280;72511;45.120;20.720;2024-02-26T10:40:27;99548.47;;;20.51
82780;BMP280;72511;45.120;20.720;2024-02-26T10:50:28;99531.09;;;20.96
82780;BMP280;72511;45.120;20.720;2024-02-26T11:00:30;99522.53;;;21.29
82780;BMP280;72511;45.120;20.720;2024-02-26T11:10:32;99519.22;;;21.07
82780;BMP280;72511;45.120;20.720;2024-02-26T11:20:35;99525.59;;;20.96
82780;BMP280;72511;45.120;20.720;2024-02-26T11:30:43;99500.72;;;21.07
82780;BMP280;72511;45.120;20.720;2024-02-26T11:40:45;99485.53;;;21.67
82780;BMP280;72511;45.120;20.720;2024-02-26T12:00:49;99469.41;;;22.08
82780;BMP280;72511;45.120;20.720;2024-02-26T12:10:54;99451.78;;;22.61
82780;BMP280;72511;45.120;20.720;2024-02-26T12:21:05;99461.75;;;22.51
82780;BMP280;72511;45.120;20.720;2024-02-26T12:31:07;99453.97;;;22.49
82780;BMP280;72511;45.120;20.720;2024-02-26T12:41:08;99446.13;;;22.40
82780;BMP280;72511;45.120;20.720;2024-02-26T12:51:12;99443.22;;;22.77
82780;BMP280;72511;45.120;20.720;2024-02-26T13:01:18;99449.66;;;22.54
82780;BMP280;72511;45.120;20.720;2024-02-26T13:11:21;99447.59;;;22.41
82780;BMP280;72511;45.120;20.720;2024-02-26T13:21:23;99457.22;;;21.85
82780;BMP280;72511;45.120;20.720;2024-02-26T13:31:25;99479.66;;;21.76
82780;BMP280;72511;45.120;20.720;2024-02-26T13:41:27;99472.28;;;21.47
82780;BMP280;72511;45.120;20.720;2024-02-26T13:51:28;99480.38;;;21.58
82780;BMP280;72511;45.120;20.720;2024-02-26T14:01:36;99483.38;;;21.18
82780;BMP280;72511;45.120;20.720;2024-02-26T14:11:37;99487.78;;;21.26
82780;BMP280;72511;45.120;20.720;2024-02-26T14:21:40;99501.78;;;20.75
82780;BMP280;72511;45.120;20.720;2024-02-26T14:31:43;99484.25;;;20.48
82780;BMP280;72511;45.120;20.720;2024-02-26T14:41:44;99499.28;;;20.07
82780;BMP280;72511;45.120;20.720;2024-02-26T14:51:46;99499.75;;;19.59
82780;BMP280;72511;45.120;20.720;2024-02-26T15:01:47;99518.75;;;19.35
82780;BMP280;72511;45.120;20.720;2024-02-26T15:11:50;99531.28;;;18.98
82780;BMP280;72511;45.120;20.720;2024-02-26T15:21:51;99518.56;;;18.67
82780;BMP280;72511;45.120;20.720;2024-02-26T15:31:53;99518.97;;;18.27
82780;BMP280;72511;45.120;20.720;2024-02-26T15:41:54;99533.50;;;17.86
82780;BMP280;72511;45.120;20.720;2024-02-26T15:51:56;99532.47;;;17.36
82780;BMP280;72511;45.120;20.720;2024-02-26T16:01:57;99542.09;;;16.95
82780;BMP280;72511;45.120;20.720;2024-02-26T16:12:05;99536.97;;;16.52
82780;BMP280;72511;45.120;20.720;2024-02-26T16:22:09;99552.69;;;16.17
82780;BMP280;72511;45.120;20.720;2024-02-26T16:32:11;99575.50;;;15.79
82780;BMP280;72511;45.120;20.720;2024-02-26T16:42:12;99565.97;;;15.40
82780;BMP280;72511;45.120;20.720;2024-02-26T16:52:15;99583.66;;;15.16
82780;BMP280;72511;45.120;20.720;2024-02-26T17:02:16;99603.34;;;14.96
82780;BMP280;72511;45.120;20.720;2024-02-26T17:12:18;99612.72;;;14.81
82780;BMP280;72511;45.120;20.720;2024-02-26T17:22:22;99626.19;;;14.61
82780;BMP280;72511;45.120;20.720;2024-02-26T17:32:26;99621.53;;;14.38
82780;BMP280;72511;45.120;20.720;2024-02-26T17:42:27;99651.84;;;14.22
82780;BMP280;72511;45.120;20.720;2024-02-26T17:52:29;99652.38;;;14.02
82780;BMP280;72511;45.120;20.720;2024-02-26T18:02:37;99650.03;;;13.86
82780;BMP280;72511;45.120;20.720;2024-02-26T18:12:39;99659.75;;;13.78
82780;BMP280;72511;45.120;20.720;2024-02-26T18:22:40;99668.34;;;13.68
82780;BMP280;72511;45.120;20.720;2024-02-26T18:32:42;99660.69;;;13.57
82780;BMP280;72511;45.120;20.720;2024-02-26T18:42:43;99657.69;;;13.46
82780;BMP280;72511;45.120;20.720;2024-02-26T18:52:45;99653.16;;;13.25
82780;BMP280;72511;45.120;20.720;2024-02-26T19:02:47;99674.75;;;13.20
82780;BMP280;72511;45.120;20.720;2024-02-26T19:12:48;99681.69;;;13.21
82780;BMP280;72511;45.120;20.720;2024-02-26T19:22:50;99678.38;;;13.08
82780;BMP280;72511;45.120;20.720;2024-02-26T19:32:54;99709.91;;;13.14
82780;BMP280;72511;45.120;20.720;2024-02-26T19:42:55;99713.66;;;12.99
82780;BMP280;72511;45.120;20.720;2024-02-26T19:52:57;99729.94;;;12.90
82780;BMP280;72511;45.120;20.720;2024-02-26T20:02:59;99737.47;;;12.86
82780;BMP280;72511;45.120;20.720;2024-02-26T20:13:02;99731.41;;;12.73
82780;BMP280;72511;45.120;20.720;2024-02-26T20:23:04;99745.63;;;12.86
82780;BMP280;72511;45.120;20.720;2024-02-26T20:33:05;99756.63;;;12.82
82780;BMP280;72511;45.120;20.720;2024-02-26T20:43:07;99774.09;;;12.72
82780;BMP280;72511;45.120;20.720;2024-02-26T20:53:09;99785.06;;;12.60
82780;BMP280;72511;45.120;20.720;2024-02-26T21:03:14;99789.69;;;12.50
82780;BMP280;72511;45.120;20.720;2024-02-26T21:13:18;99772.00;;;12.37
82780;BMP280;72511;45.120;20.720;2024-02-26T21:23:20;99811.41;;;12.50
82780;BMP280;72511;45.120;20.720;2024-02-26T21:33:23;99805.22;;;12.50
82780;BMP280;72511;45.120;20.720;2024-02-26T21:43:26;99818.22;;;12.55
82780;BMP280;72511;45.120;20.720;2024-02-26T21:53:30;99841.47;;;12.65
82780;BMP280;72511;45.120;20.720;2024-02-26T22:03:31;99851.72;;;12.61
82780;BMP280;72511;45.120;20.720;2024-02-26T22:13:33;99829.41;;;12.35
82780;BMP280;72511;45.120;20.720;2024-02-26T22:23:34;99864.75;;;12.44
